createdAt,value
2018-04-06T00:00:30.099Z,1016.20
2018-04-06T00:01:30.085Z,1016.22
2018-04-06T00:02:30.074Z,1016.20
2018-04-06T00:03:30.062Z,1016.23
2018-04-06T00:04:30.051Z,1016.23
2018-04-06T00:05:30.035Z,1016.19
2018-04-06T00:06:30.025Z,1016.19
2018-04-06T00:07:30.014Z,1016.20
2018-04-06T00:08:30.003Z,1016.17
2018-04-06T00:09:29.987Z,1016.20
2018-04-06T00:10:29.977Z,1016.22
2018-04-06T00:11:29.965Z,1016.23
2018-04-06T00:12:29.951Z,1016.26
2018-04-06T00:13:29.946Z,1016.31
2018-04-06T00:14:29.924Z,1016.29
2018-04-06T00:15:29.913Z,1016.29
2018-04-06T00:16:29.905Z,1016.27
2018-04-06T00:17:29.895Z,1016.30
2018-04-06T00:18:29.883Z,1016.31
2018-04-06T00:19:29.863Z,1016.33
2018-04-06T00:20:29.855Z,1016.32
2018-04-06T00:21:29.844Z,1016.35
2018-04-06T00:22:29.831Z,1016.38
2018-04-06T00:23:29.817Z,1016.34
2018-04-06T00:24:29.807Z,1016.35
2018-04-06T00:25:29.794Z,1016.37
2018-04-06T00:26:29.782Z,1016.38
2018-04-06T00:27:29.771Z,1016.35
2018-04-06T00:28:29.766Z,1016.34
2018-04-06T00:29:29.748Z,1016.40
2018-04-06T00:30:29.731Z,1016.34
2018-04-06T00:31:29.720Z,1016.33
2018-04-06T00:32:29.710Z,1016.31
2018-04-06T00:33:29.697Z,1016.37
2018-04-06T00:34:29.684Z,1016.37
2018-04-06T00:35:29.670Z,1016.34
2018-04-06T00:36:29.667Z,1016.37
2018-04-06T00:37:29.648Z,1016.36
2018-04-06T00:38:29.639Z,1016.38
2018-04-06T00:39:29.623Z,1016.37
2018-04-06T00:40:29.612Z,1016.38
2018-04-06T00:41:29.599Z,1016.38
2018-04-06T00:42:29.589Z,1016.42
2018-04-06T00:43:29.575Z,1016.37
2018-04-06T00:44:29.567Z,1016.38
2018-04-06T00:45:29.550Z,1016.35
2018-04-06T00:46:29.539Z,1016.36
2018-04-06T00:47:29.531Z,1016.38
2018-04-06T00:48:29.514Z,1016.39
2018-04-06T00:49:29.501Z,1016.41
2018-04-06T00:50:29.492Z,1016.43
2018-04-06T00:51:29.478Z,1016.41
2018-04-06T00:52:29.465Z,1016.42
2018-04-06T00:53:29.453Z,1016.43
2018-04-06T00:54:29.440Z,1016.41
2018-04-06T00:55:29.430Z,1016.39
2018-04-06T00:56:29.417Z,1016.40
2018-04-06T00:57:29.408Z,1016.37
2018-04-06T00:58:29.395Z,1016.41
2018-04-06T00:59:29.375Z,1016.39
2018-04-06T01:00:29.368Z,1016.43
2018-04-06T01:01:29.354Z,1016.42
2018-04-06T01:02:29.344Z,1016.43
2018-04-06T01:03:29.337Z,1016.43
2018-04-06T01:04:29.319Z,1016.46
2018-04-06T01:05:29.307Z,1016.40
2018-04-06T01:06:29.305Z,1016.41
2018-04-06T01:07:29.287Z,1016.41
2018-04-06T01:08:29.272Z,1016.39
2018-04-06T01:09:29.259Z,1016.37
2018-04-06T01:10:29.246Z,1016.33
2018-04-06T01:11:29.239Z,1016.27
2018-04-06T01:12:29.222Z,1016.25
2018-04-06T01:13:29.212Z,1016.28
2018-04-06T01:14:29.197Z,1016.29
2018-04-06T01:15:29.185Z,1016.28
2018-04-06T01:16:29.172Z,1016.28
2018-04-06T01:17:29.161Z,1016.27
2018-04-06T01:18:29.150Z,1016.29
2018-04-06T01:19:29.136Z,1016.29
2018-04-06T01:20:29.127Z,1016.29
2018-04-06T01:21:29.110Z,1016.26
2018-04-06T01:22:29.100Z,1016.31
2018-04-06T01:23:29.088Z,1016.26
2018-04-06T01:24:29.079Z,1016.27
2018-04-06T01:25:29.061Z,1016.23
2018-04-06T01:26:29.050Z,1016.23
2018-04-06T01:27:29.037Z,1016.24
2018-04-06T01:28:29.026Z,1016.25
2018-04-06T01:29:29.014Z,1016.26
2018-04-06T01:30:30.760Z,1016.24
2018-04-06T01:31:28.991Z,1016.28
2018-04-06T01:32:28.978Z,1016.27
2018-04-06T01:33:28.963Z,1016.26
2018-04-06T01:34:28.952Z,1016.23
2018-04-06T01:35:28.942Z,1016.22
2018-04-06T01:36:28.926Z,1016.24
2018-04-06T01:37:28.915Z,1016.25
2018-04-06T01:38:28.901Z,1016.21
2018-04-06T01:39:28.891Z,1016.24
2018-04-06T01:40:28.878Z,1016.22
2018-04-06T01:41:28.865Z,1016.26
2018-04-06T01:42:28.852Z,1016.22
2018-04-06T01:43:28.842Z,1016.21
2018-04-06T01:44:28.832Z,1016.24
2018-04-06T01:45:30.330Z,1016.21
2018-04-06T01:46:28.808Z,1016.22
2018-04-06T01:47:28.789Z,1016.15
2018-04-06T01:48:28.780Z,1016.17
2018-04-06T01:49:28.768Z,1016.13
2018-04-06T01:50:28.757Z,1016.10
2018-04-06T01:51:28.744Z,1016.07
2018-04-06T01:52:28.731Z,1016.07
2018-04-06T01:53:28.715Z,1016.06
2018-04-06T01:54:28.708Z,1016.00
2018-04-06T01:55:28.694Z,1016.02
2018-04-06T01:56:28.685Z,1015.98
2018-04-06T01:57:28.668Z,1015.98
2018-04-06T01:58:28.660Z,1015.94
2018-04-06T01:59:28.647Z,1015.94
2018-04-06T02:00:28.633Z,1015.93
2018-04-06T02:01:28.619Z,1015.94
2018-04-06T02:02:28.609Z,1015.99
2018-04-06T02:03:28.597Z,1016.00
2018-04-06T02:04:28.582Z,1015.96
2018-04-06T02:05:28.574Z,1016.01
2018-04-06T02:06:28.560Z,1016.03
2018-04-06T02:07:28.550Z,1016.02
2018-04-06T02:08:28.534Z,1016.08
2018-04-06T02:09:28.524Z,1016.02
2018-04-06T02:10:28.510Z,1016.05
2018-04-06T02:11:28.497Z,1016.06
2018-04-06T02:12:28.489Z,1016.02
2018-04-06T02:13:28.477Z,1015.99
2018-04-06T02:14:28.465Z,1016.03
2018-04-06T02:15:28.449Z,1016.02
2018-04-06T02:16:28.437Z,1016.06
2018-04-06T02:17:28.424Z,1016.08
2018-04-06T02:18:28.417Z,1016.08
2018-04-06T02:19:28.397Z,1016.10
2018-04-06T02:20:28.388Z,1016.10
2018-04-06T02:21:28.377Z,1016.06
2018-04-06T02:22:28.363Z,1016.06
2018-04-06T02:23:28.357Z,1016.07
2018-04-06T02:24:28.404Z,1016.02
2018-04-06T02:25:28.324Z,1016.07
2018-04-06T02:26:28.317Z,1016.03
2018-04-06T02:27:28.301Z,1016.04
2018-04-06T02:28:28.288Z,1016.05
2018-04-06T02:29:29.830Z,1016.05
2018-04-06T02:30:28.260Z,1016.04
2018-04-06T02:31:28.252Z,1016.03
2018-04-06T02:32:28.242Z,1016.00
2018-04-06T02:33:28.226Z,1016.00
2018-04-06T02:34:28.216Z,1016.00
2018-04-06T02:35:28.197Z,1016.01
2018-04-06T02:36:28.194Z,1016.02
2018-04-06T02:37:28.176Z,1015.98
2018-04-06T02:38:28.166Z,1016.03
2018-04-06T02:39:28.152Z,1015.97
2018-04-06T02:40:28.138Z,1015.99
2018-04-06T02:41:28.127Z,1015.96
2018-04-06T02:42:28.113Z,1015.98
2018-04-06T02:43:28.104Z,1015.96
2018-04-06T02:44:28.092Z,1015.97
2018-04-06T02:45:28.071Z,1015.99
2018-04-06T02:46:28.064Z,1015.93
2018-04-06T02:47:28.054Z,1015.95
2018-04-06T02:48:28.039Z,1015.94
2018-04-06T02:49:28.028Z,1015.92
2018-04-06T02:50:28.016Z,1015.93
2018-04-06T02:51:28.002Z,1015.91
2018-04-06T02:52:27.987Z,1015.96
2018-04-06T02:53:27.976Z,1015.94
2018-04-06T02:54:27.963Z,1015.97
2018-04-06T02:55:27.956Z,1016.00
2018-04-06T02:56:27.937Z,1016.00
2018-04-06T02:57:27.928Z,1015.99
2018-04-06T02:58:27.914Z,1015.99
2018-04-06T02:59:27.901Z,1016.01
2018-04-06T03:00:27.888Z,1015.97
2018-04-06T03:01:27.873Z,1016.02
2018-04-06T03:02:27.862Z,1016.00
2018-04-06T03:03:27.856Z,1016.04
2018-04-06T03:04:27.836Z,1016.04
2018-04-06T03:05:27.828Z,1016.05
2018-04-06T03:06:27.819Z,1016.08
2018-04-06T03:07:27.800Z,1016.08
2018-04-06T03:08:27.786Z,1016.10
2018-04-06T03:09:27.778Z,1016.14
2018-04-06T03:10:27.761Z,1016.10
2018-04-06T03:11:27.744Z,1016.10
2018-04-06T03:12:27.736Z,1016.13
2018-04-06T03:13:27.722Z,1016.15
2018-04-06T03:14:27.711Z,1016.16
2018-04-06T03:15:27.695Z,1016.15
2018-04-06T03:16:27.682Z,1016.20
2018-04-06T03:17:27.670Z,1016.20
2018-04-06T03:18:27.661Z,1016.23
2018-04-06T03:19:27.647Z,1016.27
2018-04-06T03:20:27.634Z,1016.27
2018-04-06T03:21:27.615Z,1016.28
2018-04-06T03:22:27.606Z,1016.27
2018-04-06T03:23:27.598Z,1016.27
2018-04-06T03:24:27.582Z,1016.31
2018-04-06T03:25:27.572Z,1016.26
2018-04-06T03:26:27.555Z,1016.28
2018-04-06T03:27:27.547Z,1016.29
2018-04-06T03:28:27.532Z,1016.28
2018-04-06T03:29:27.526Z,1016.27
2018-04-06T03:30:27.509Z,1016.27
2018-04-06T03:31:27.493Z,1016.27
2018-04-06T03:32:27.483Z,1016.25
2018-04-06T03:33:27.466Z,1016.27
2018-04-06T03:34:27.466Z,1016.27
2018-04-06T03:35:27.440Z,1016.24
2018-04-06T03:36:27.429Z,1016.27
2018-04-06T03:37:27.413Z,1016.27
2018-04-06T03:38:27.404Z,1016.26
2018-04-06T03:39:27.388Z,1016.27
2018-04-06T03:40:27.375Z,1016.29
2018-04-06T03:41:27.365Z,1016.30
2018-04-06T03:42:27.350Z,1016.31
2018-04-06T03:43:27.339Z,1016.28
2018-04-06T03:44:27.325Z,1016.25
2018-04-06T03:45:27.313Z,1016.24
2018-04-06T03:46:27.299Z,1016.25
2018-04-06T03:47:27.285Z,1016.24
2018-04-06T03:48:27.272Z,1016.22
2018-04-06T03:49:27.258Z,1016.23
2018-04-06T03:50:27.248Z,1016.18
2018-04-06T03:51:27.235Z,1016.17
2018-04-06T03:52:27.220Z,1016.19
2018-04-06T03:53:27.213Z,1016.19
2018-04-06T03:54:27.195Z,1016.17
2018-04-06T03:55:27.180Z,1016.15
2018-04-06T03:56:27.174Z,1016.18
2018-04-06T03:57:27.156Z,1016.20
2018-04-06T03:58:27.144Z,1016.21
2018-04-06T03:59:27.135Z,1016.18
2018-04-06T04:00:27.120Z,1016.21
2018-04-06T04:01:27.107Z,1016.21
2018-04-06T04:02:27.134Z,1016.20
2018-04-06T04:03:27.079Z,1016.23
2018-04-06T04:04:27.066Z,1016.20
2018-04-06T04:05:27.053Z,1016.22
2018-04-06T04:06:27.042Z,1016.20
2018-04-06T04:07:27.028Z,1016.18
2018-04-06T04:08:27.011Z,1016.19
2018-04-06T04:09:27.000Z,1016.15
2018-04-06T04:10:26.989Z,1016.18
2018-04-06T04:11:26.977Z,1016.16
2018-04-06T04:12:26.966Z,1016.11
2018-04-06T04:13:26.949Z,1016.13
2018-04-06T04:14:26.935Z,1016.18
2018-04-06T04:15:26.930Z,1016.14
2018-04-06T04:16:26.912Z,1016.15
2018-04-06T04:17:26.895Z,1016.11
2018-04-06T04:18:26.928Z,1016.11
2018-04-06T04:19:26.872Z,1016.12
2018-04-06T04:20:26.857Z,1016.09
2018-04-06T04:21:26.845Z,1016.10
2018-04-06T04:22:26.829Z,1016.09
2018-04-06T04:23:26.817Z,1016.12
2018-04-06T04:24:26.804Z,1016.10
2018-04-06T04:25:26.804Z,1016.09
2018-04-06T04:26:26.780Z,1016.08
2018-04-06T04:27:26.782Z,1016.03
2018-04-06T04:28:26.749Z,1016.03
2018-04-06T04:29:26.737Z,1016.01
2018-04-06T04:30:26.727Z,1015.98
2018-04-06T04:31:26.716Z,1015.98
2018-04-06T04:32:26.702Z,1015.99
2018-04-06T04:33:26.687Z,1016.01
2018-04-06T04:34:26.697Z,1016.03
2018-04-06T04:35:26.663Z,1016.04
2018-04-06T04:36:26.650Z,1016.06
2018-04-06T04:37:26.635Z,1016.04
2018-04-06T04:38:26.621Z,1016.04
2018-04-06T04:39:26.613Z,1016.07
2018-04-06T04:40:26.600Z,1016.08
2018-04-06T04:41:26.580Z,1016.11
2018-04-06T04:42:26.568Z,1016.11
2018-04-06T04:43:26.555Z,1016.18
2018-04-06T04:44:26.542Z,1016.16
2018-04-06T04:45:26.531Z,1016.18
2018-04-06T04:46:26.513Z,1016.16
2018-04-06T04:47:26.504Z,1016.15
2018-04-06T04:48:26.501Z,1016.19
2018-04-06T04:49:26.476Z,1016.19
2018-04-06T04:50:26.509Z,1016.25
2018-04-06T04:51:26.453Z,1016.24
2018-04-06T04:52:26.438Z,1016.26
2018-04-06T04:53:26.425Z,1016.21
2018-04-06T04:54:26.415Z,1016.21
2018-04-06T04:55:26.399Z,1016.20
2018-04-06T04:56:26.386Z,1016.20
2018-04-06T04:57:26.377Z,1016.18
2018-04-06T04:58:26.360Z,1016.16
2018-04-06T04:59:26.347Z,1016.16
2018-04-06T05:00:26.334Z,1016.13
2018-04-06T05:01:26.320Z,1016.14
2018-04-06T05:02:26.306Z,1016.12
2018-04-06T05:03:26.322Z,1016.13
2018-04-06T05:04:26.280Z,1016.11
2018-04-06T05:05:26.268Z,1016.11
2018-04-06T05:06:26.256Z,1016.12
2018-04-06T05:07:26.241Z,1016.08
2018-04-06T05:08:26.229Z,1016.13
2018-04-06T05:09:26.215Z,1016.13
2018-04-06T05:10:26.207Z,1016.19
2018-04-06T05:11:26.190Z,1016.21
2018-04-06T05:12:26.174Z,1016.22
2018-04-06T05:13:26.164Z,1016.21
2018-04-06T05:14:26.151Z,1016.18
2018-04-06T05:15:26.138Z,1016.20
2018-04-06T05:16:26.128Z,1016.20
2018-04-06T05:17:26.108Z,1016.20
2018-04-06T05:18:26.099Z,1016.16
2018-04-06T05:19:26.086Z,1016.16
2018-04-06T05:20:26.071Z,1016.16
2018-04-06T05:21:26.065Z,1016.17
2018-04-06T05:22:26.044Z,1016.18
2018-04-06T05:23:26.032Z,1016.21
2018-04-06T05:24:26.082Z,1016.19
2018-04-06T05:25:26.008Z,1016.17
2018-04-06T05:26:26.015Z,1016.17
2018-04-06T05:27:25.980Z,1016.17
2018-04-06T05:28:25.971Z,1016.14
2018-04-06T05:29:25.956Z,1016.15
2018-04-06T05:30:25.945Z,1016.12
2018-04-06T05:31:25.931Z,1016.12
2018-04-06T05:32:25.921Z,1016.18
2018-04-06T05:33:25.906Z,1016.12
2018-04-06T05:34:25.895Z,1016.16
2018-04-06T05:35:25.883Z,1016.15
2018-04-06T05:36:25.873Z,1016.13
2018-04-06T05:37:25.864Z,1016.16
2018-04-06T05:38:25.845Z,1016.18
2018-04-06T05:39:25.833Z,1016.18
2018-04-06T05:40:25.821Z,1016.18
2018-04-06T05:41:25.805Z,1016.17
2018-04-06T05:42:25.796Z,1016.18
2018-04-06T05:43:25.784Z,1016.19
2018-04-06T05:44:25.786Z,1016.14
2018-04-06T05:45:25.756Z,1016.14
2018-04-06T05:46:25.748Z,1016.14
2018-04-06T05:47:25.738Z,1016.14
2018-04-06T05:48:25.722Z,1016.11
2018-04-06T05:49:25.707Z,1016.12
2018-04-06T05:50:25.702Z,1016.14
2018-04-06T05:51:25.691Z,1016.17
2018-04-06T05:52:25.674Z,1016.16
2018-04-06T05:53:25.662Z,1016.24
2018-04-06T05:54:25.670Z,1016.24
2018-04-06T05:55:25.648Z,1016.26
2018-04-06T05:56:25.627Z,1016.25
2018-04-06T05:57:25.616Z,1016.28
2018-04-06T05:58:25.606Z,1016.33
2018-04-06T05:59:25.594Z,1016.34
2018-04-06T06:00:25.582Z,1016.35
2018-04-06T06:01:25.570Z,1016.34
2018-04-06T06:02:25.557Z,1016.30
2018-04-06T06:03:25.550Z,1016.32
2018-04-06T06:04:25.538Z,1016.30
2018-04-06T06:05:25.530Z,1016.30
2018-04-06T06:06:25.509Z,1016.32
2018-04-06T06:07:25.495Z,1016.35
2018-04-06T06:08:25.486Z,1016.35
2018-04-06T06:09:25.471Z,1016.40
2018-04-06T06:10:25.460Z,1016.40
2018-04-06T06:11:25.460Z,1016.42
2018-04-06T06:12:25.444Z,1016.42
2018-04-06T06:13:25.423Z,1016.42
2018-04-06T06:14:25.453Z,1016.34
2018-04-06T06:15:25.404Z,1016.39
2018-04-06T06:16:25.390Z,1016.37
2018-04-06T06:17:25.381Z,1016.41
2018-04-06T06:18:25.369Z,1016.41
2018-04-06T06:19:25.383Z,1016.40
2018-04-06T06:20:25.345Z,1016.38
2018-04-06T06:21:25.334Z,1016.33
2018-04-06T06:22:25.323Z,1016.36
2018-04-06T06:23:25.310Z,1016.36
2018-04-06T06:24:25.296Z,1016.35
2018-04-06T06:25:25.288Z,1016.36
2018-04-06T06:26:25.277Z,1016.40
2018-04-06T06:27:25.264Z,1016.42
2018-04-06T06:28:25.255Z,1016.43
2018-04-06T06:29:25.242Z,1016.44
2018-04-06T06:30:25.227Z,1016.39
2018-04-06T06:31:25.219Z,1016.40
2018-04-06T06:32:25.208Z,1016.41
2018-04-06T06:33:25.197Z,1016.39
2018-04-06T06:34:25.198Z,1016.39
2018-04-06T06:35:25.176Z,1016.44
2018-04-06T06:36:25.165Z,1016.45
2018-04-06T06:37:25.154Z,1016.44
2018-04-06T06:38:25.145Z,1016.42
2018-04-06T06:39:25.536Z,1016.42
2018-04-06T06:40:25.121Z,1016.41
2018-04-06T06:41:25.109Z,1016.40
2018-04-06T06:42:25.097Z,1016.39
2018-04-06T06:43:25.088Z,1016.39
2018-04-06T06:44:25.084Z,1016.40
2018-04-06T06:45:25.068Z,1016.34
2018-04-06T06:46:25.058Z,1016.40
2018-04-06T06:47:25.047Z,1016.42
2018-04-06T06:48:25.037Z,1016.39
2018-04-06T06:49:25.026Z,1016.42
2018-04-06T06:50:25.017Z,1016.39
2018-04-06T06:51:25.013Z,1016.36
2018-04-06T06:52:24.995Z,1016.28
2018-04-06T06:53:24.984Z,1016.29
2018-04-06T06:54:24.986Z,1016.29
2018-04-06T06:55:24.966Z,1016.24
2018-04-06T06:56:24.958Z,1016.20
2018-04-06T06:57:24.944Z,1016.23
2018-04-06T06:58:24.933Z,1016.16
2018-04-06T06:59:24.921Z,1016.13
2018-04-06T07:00:24.915Z,1016.16
2018-04-06T07:01:24.902Z,1016.16
2018-04-06T07:02:24.892Z,1016.15
2018-04-06T07:03:24.884Z,1016.13
2018-04-06T07:04:24.873Z,1016.10
2018-04-06T07:05:24.865Z,1016.08
2018-04-06T07:06:24.857Z,1016.13
2018-04-06T07:07:24.860Z,1016.10
2018-04-06T07:08:24.850Z,1016.12
2018-04-06T07:09:24.856Z,1016.09
2018-04-06T07:10:24.817Z,1016.05
2018-04-06T07:11:24.807Z,1016.07
2018-04-06T07:12:24.796Z,1016.03
2018-04-06T07:13:24.786Z,1016.08
2018-04-06T07:14:24.777Z,1016.06
2018-04-06T07:15:24.769Z,1016.01
2018-04-06T07:16:24.764Z,1015.99
2018-04-06T07:17:24.757Z,1016.00
2018-04-06T07:18:24.741Z,1016.00
2018-04-06T07:19:24.733Z,1016.01
2018-04-06T07:20:24.735Z,1015.99
2018-04-06T07:21:24.718Z,1015.99
2018-04-06T07:22:24.709Z,1015.99
2018-04-06T07:23:24.702Z,1015.99
2018-04-06T07:24:24.689Z,1016.04
2018-04-06T07:25:24.683Z,1016.01
2018-04-06T07:26:24.674Z,1015.97
2018-04-06T07:27:24.667Z,1016.05
2018-04-06T07:28:24.658Z,1015.97
2018-04-06T07:29:24.650Z,1016.00
2018-04-06T07:30:24.641Z,1015.97
2018-04-06T07:31:24.633Z,1015.99
2018-04-06T07:32:24.659Z,1015.94
2018-04-06T07:33:24.617Z,1015.92
2018-04-06T07:34:24.606Z,1015.91
2018-04-06T07:35:24.602Z,1015.86
2018-04-06T07:36:24.594Z,1015.87
2018-04-06T07:37:24.584Z,1015.82
2018-04-06T07:38:24.576Z,1015.77
2018-04-06T07:39:24.569Z,1015.77
2018-04-06T07:40:24.560Z,1015.79
2018-04-06T07:41:24.555Z,1015.78
2018-04-06T07:42:24.542Z,1015.79
2018-04-06T07:43:24.540Z,1015.82
2018-04-06T07:44:24.549Z,1015.80
2018-04-06T07:45:24.520Z,1015.81
2018-04-06T07:46:24.514Z,1015.83
2018-04-06T07:47:24.512Z,1015.85
2018-04-06T07:48:24.502Z,1015.81
2018-04-06T07:49:24.490Z,1015.81
2018-04-06T07:50:24.485Z,1015.86
2018-04-06T07:51:24.480Z,1015.83
2018-04-06T07:52:24.471Z,1015.81
2018-04-06T07:53:24.468Z,1015.81
2018-04-06T07:54:24.457Z,1015.86
2018-04-06T07:55:24.449Z,1015.84
2018-04-06T07:56:24.439Z,1015.94
2018-04-06T07:57:24.427Z,1015.86
2018-04-06T07:58:24.426Z,1015.92
2018-04-06T07:59:24.417Z,1015.87
2018-04-06T08:00:24.422Z,1015.89
2018-04-06T08:01:24.403Z,1015.81
2018-04-06T08:02:24.405Z,1015.79
2018-04-06T08:03:24.417Z,1015.93
2018-04-06T08:04:24.384Z,1015.89
2018-04-06T08:05:24.375Z,1015.86
2018-04-06T08:06:24.370Z,1015.85
2018-04-06T08:07:24.363Z,1015.80
2018-04-06T08:08:24.356Z,1015.81
2018-04-06T08:09:24.348Z,1015.81
2018-04-06T08:10:24.341Z,1015.87
2018-04-06T08:11:24.333Z,1015.90
2018-04-06T08:12:24.326Z,1015.93
2018-04-06T08:13:24.326Z,1015.95
2018-04-06T08:14:24.313Z,1016.00
2018-04-06T08:15:24.306Z,1015.95
2018-04-06T08:16:24.297Z,1015.94
2018-04-06T08:17:24.296Z,1015.92
2018-04-06T08:18:24.289Z,1015.95
2018-04-06T08:19:24.280Z,1016.00
2018-04-06T08:20:24.276Z,1016.02
2018-04-06T08:21:24.274Z,1016.03
2018-04-06T08:22:24.267Z,1016.06
2018-04-06T08:23:24.262Z,1016.04
2018-04-06T08:24:24.252Z,1015.94
2018-04-06T08:25:24.253Z,1015.99
2018-04-06T08:26:24.249Z,1015.90
2018-04-06T08:27:24.245Z,1015.95
2018-04-06T08:28:24.240Z,1015.95
2018-04-06T08:29:24.237Z,1015.95
2018-04-06T08:30:24.233Z,1015.96
2018-04-06T08:31:24.235Z,1015.92
2018-04-06T08:32:24.228Z,1015.96
2018-04-06T08:33:24.224Z,1015.97
2018-04-06T08:34:24.223Z,1015.99
2018-04-06T08:35:24.220Z,1016.08
2018-04-06T08:36:24.218Z,1015.95
2018-04-06T08:37:24.213Z,1015.96
2018-04-06T08:38:24.210Z,1016.04
2018-04-06T08:39:24.214Z,1015.95
2018-04-06T08:40:24.205Z,1016.00
2018-04-06T08:41:24.209Z,1015.95
2018-04-06T08:42:24.245Z,1015.95
2018-04-06T08:43:24.204Z,1015.90
2018-04-06T08:44:24.203Z,1015.98
2018-04-06T08:45:24.201Z,1015.96
2018-04-06T08:46:24.202Z,1015.94
2018-04-06T08:47:24.197Z,1015.95
2018-04-06T08:48:24.201Z,1015.97
2018-04-06T08:49:24.198Z,1015.95
2018-04-06T08:50:24.195Z,1015.95
2018-04-06T08:51:24.200Z,1015.96
2018-04-06T08:52:24.198Z,1015.98
2018-04-06T08:53:24.195Z,1015.98
2018-04-06T08:54:24.202Z,1015.91
2018-04-06T08:55:24.202Z,1015.91
2018-04-06T08:56:24.215Z,1015.90
2018-04-06T08:57:24.200Z,1015.91
2018-04-06T08:58:24.201Z,1015.88
2018-04-06T08:59:24.203Z,1015.90
2018-04-06T09:00:24.201Z,1015.91
2018-04-06T09:01:24.204Z,1015.97
2018-04-06T09:02:24.206Z,1015.90
2018-04-06T09:03:24.212Z,1015.88
2018-04-06T09:04:24.210Z,1015.88
2018-04-06T09:05:24.215Z,1015.83
2018-04-06T09:06:24.210Z,1015.79
2018-04-06T09:07:24.221Z,1015.81
2018-04-06T09:08:24.216Z,1015.78
2018-04-06T09:09:24.219Z,1015.80
2018-04-06T09:10:24.220Z,1015.83
2018-04-06T09:11:24.223Z,1015.77
2018-04-06T09:12:24.227Z,1015.75
2018-04-06T09:13:24.255Z,1015.71
2018-04-06T09:14:24.226Z,1015.71
2018-04-06T09:15:24.228Z,1015.71
2018-04-06T09:16:24.235Z,1015.71
2018-04-06T09:17:24.235Z,1015.70
2018-04-06T09:18:24.239Z,1015.67
2018-04-06T09:19:24.240Z,1015.66
2018-04-06T09:20:24.271Z,1015.70
2018-04-06T09:21:24.245Z,1015.68
2018-04-06T09:22:24.248Z,1015.66
2018-04-06T09:23:24.257Z,1015.63
2018-04-06T09:24:24.250Z,1015.67
2018-04-06T09:25:24.273Z,1015.60
2018-04-06T09:26:24.261Z,1015.67
2018-04-06T09:27:24.265Z,1015.65
2018-04-06T09:28:24.271Z,1015.68
2018-04-06T09:29:24.277Z,1015.61
2018-04-06T09:30:24.272Z,1015.64
2018-04-06T09:31:24.295Z,1015.67
2018-04-06T09:32:24.285Z,1015.60
2018-04-06T09:33:24.283Z,1015.63
2018-04-06T09:34:24.294Z,1015.62
2018-04-06T09:35:24.304Z,1015.65
2018-04-06T09:36:24.300Z,1015.60
2018-04-06T09:37:24.303Z,1015.69
2018-04-06T09:38:24.308Z,1015.61
2018-04-06T09:39:24.311Z,1015.59
2018-04-06T09:40:24.317Z,1015.55
2018-04-06T09:41:24.323Z,1015.55
2018-04-06T09:42:24.326Z,1015.57
2018-04-06T09:43:24.331Z,1015.58
2018-04-06T09:44:24.334Z,1015.58
2018-04-06T09:45:24.336Z,1015.58
2018-04-06T09:46:24.343Z,1015.53
2018-04-06T09:47:24.347Z,1015.50
2018-04-06T09:48:24.346Z,1015.45
2018-04-06T09:49:24.408Z,1015.50
2018-04-06T09:50:24.360Z,1015.47
2018-04-06T09:51:24.362Z,1015.42
2018-04-06T09:52:24.366Z,1015.45
2018-04-06T09:53:24.372Z,1015.41
2018-04-06T09:54:24.378Z,1015.41
2018-04-06T09:55:24.382Z,1015.41
2018-04-06T09:56:24.388Z,1015.36
2018-04-06T09:57:24.394Z,1015.38
2018-04-06T09:58:24.396Z,1015.35
2018-04-06T09:59:24.399Z,1015.26
2018-04-06T10:00:24.405Z,1015.28
2018-04-06T10:01:24.430Z,1015.28
2018-04-06T10:02:24.416Z,1015.28
2018-04-06T10:03:24.417Z,1015.28
2018-04-06T10:04:24.423Z,1015.22
2018-04-06T10:05:24.440Z,1015.17
2018-04-06T10:06:24.430Z,1015.20
2018-04-06T10:07:24.612Z,1015.22
2018-04-06T10:08:24.439Z,1015.23
2018-04-06T10:09:24.446Z,1015.15
2018-04-06T10:10:24.442Z,1015.17
2018-04-06T10:11:24.482Z,1015.13
2018-04-06T10:12:24.455Z,1015.07
2018-04-06T10:13:24.488Z,1015.08
2018-04-06T10:14:24.470Z,1015.07
2018-04-06T10:15:24.518Z,1015.14
2018-04-06T10:16:26.438Z,1015.07
2018-04-06T10:17:24.477Z,1015.00
2018-04-06T10:18:24.487Z,1014.98
2018-04-06T10:19:24.487Z,1014.98
2018-04-06T10:20:24.496Z,1014.91
2018-04-06T10:21:24.498Z,1015.00
2018-04-06T10:22:24.504Z,1015.01
2018-04-06T10:23:24.503Z,1015.00
2018-04-06T10:24:24.511Z,1015.05
2018-04-06T10:25:24.512Z,1015.03
2018-04-06T10:26:24.521Z,1015.01
2018-04-06T10:27:24.520Z,1015.08
2018-04-06T10:28:24.528Z,1015.00
2018-04-06T10:29:24.530Z,1015.02
2018-04-06T10:30:24.533Z,1015.06
2018-04-06T10:31:24.542Z,1015.04
2018-04-06T10:32:24.543Z,1015.09
2018-04-06T10:33:24.547Z,1014.99
2018-04-06T10:34:24.550Z,1014.93
2018-04-06T10:35:24.556Z,1014.93
2018-04-06T10:36:24.558Z,1014.87
2018-04-06T10:37:24.564Z,1014.90
2018-04-06T10:38:24.567Z,1014.88
2018-04-06T10:39:24.568Z,1014.85
2018-04-06T10:40:24.576Z,1014.85
2018-04-06T10:41:24.579Z,1014.83
2018-04-06T10:42:24.582Z,1014.76
2018-04-06T10:43:24.590Z,1014.77
2018-04-06T10:44:24.595Z,1014.74
2018-04-06T10:45:24.614Z,1014.71
2018-04-06T10:46:24.617Z,1014.68
2018-04-06T10:47:24.623Z,1014.75
2018-04-06T10:48:24.664Z,1014.75
2018-04-06T10:49:24.635Z,1014.70
2018-04-06T10:50:24.629Z,1014.72
2018-04-06T10:51:24.618Z,1014.69
2018-04-06T10:52:24.623Z,1014.70
2018-04-06T10:53:24.663Z,1014.72
2018-04-06T10:54:24.637Z,1014.65
2018-04-06T10:55:24.659Z,1014.66
2018-04-06T10:56:24.646Z,1014.66
2018-04-06T10:57:24.650Z,1014.69
2018-04-06T10:58:24.652Z,1014.65
2018-04-06T10:59:24.661Z,1014.59
2018-04-06T11:00:24.664Z,1014.65
2018-04-06T11:01:24.671Z,1014.57
2018-04-06T11:02:24.674Z,1014.60
2018-04-06T11:03:24.680Z,1014.60
2018-04-06T11:04:24.684Z,1014.58
2018-04-06T11:05:24.683Z,1014.56
2018-04-06T11:06:24.693Z,1014.54
2018-04-06T11:07:24.690Z,1014.47
2018-04-06T11:08:24.698Z,1014.43
2018-04-06T11:09:24.701Z,1014.43
2018-04-06T11:10:24.707Z,1014.57
2018-04-06T11:11:24.709Z,1014.46
2018-04-06T11:12:24.714Z,1014.53
2018-04-06T11:13:24.714Z,1014.53
2018-04-06T11:14:24.722Z,1014.40
2018-04-06T11:15:24.723Z,1014.49
2018-04-06T11:16:24.780Z,1014.45
2018-04-06T11:17:24.740Z,1014.46
2018-04-06T11:18:24.748Z,1014.53
2018-04-06T11:19:24.741Z,1014.56
2018-04-06T11:20:24.750Z,1014.50
2018-04-06T11:21:24.749Z,1014.48
2018-04-06T11:22:24.752Z,1014.46
2018-04-06T11:23:24.759Z,1014.42
2018-04-06T11:24:24.759Z,1014.39
2018-04-06T11:25:24.762Z,1014.42
2018-04-06T11:26:24.782Z,1014.43
2018-04-06T11:27:24.773Z,1014.36
2018-04-06T11:28:24.771Z,1014.35
2018-04-06T11:29:24.778Z,1014.31
2018-04-06T11:30:24.786Z,1014.27
2018-04-06T11:31:24.795Z,1014.32
2018-04-06T11:32:24.789Z,1014.32
2018-04-06T11:33:24.790Z,1014.29
2018-04-06T11:34:24.797Z,1014.27
2018-04-06T11:35:24.815Z,1014.22
2018-04-06T11:36:24.807Z,1014.21
2018-04-06T11:37:24.805Z,1014.18
2018-04-06T11:38:24.809Z,1014.22
2018-04-06T11:39:24.815Z,1014.21
2018-04-06T11:40:24.817Z,1014.23
2018-04-06T11:41:24.822Z,1014.16
2018-04-06T11:42:24.823Z,1014.20
2018-04-06T11:43:24.827Z,1014.15
2018-04-06T11:44:24.835Z,1014.14
2018-04-06T11:45:24.838Z,1014.12
2018-04-06T11:46:24.837Z,1014.09
2018-04-06T11:47:24.844Z,1014.14
2018-04-06T11:48:24.845Z,1014.11
2018-04-06T11:49:24.855Z,1014.03
2018-04-06T11:50:24.864Z,1014.04
2018-04-06T11:51:24.870Z,1014.00
2018-04-06T11:52:24.885Z,1013.94
2018-04-06T11:53:24.868Z,1013.96
2018-04-06T11:54:24.870Z,1013.93
2018-04-06T11:55:24.880Z,1013.94
2018-04-06T11:56:24.891Z,1013.94
2018-04-06T11:57:24.884Z,1013.97
2018-04-06T11:58:24.886Z,1013.92
2018-04-06T11:59:24.893Z,1013.90
2018-04-06T12:00:24.896Z,1013.91
2018-04-06T12:01:24.900Z,1013.93
2018-04-06T12:02:24.905Z,1013.96
2018-04-06T12:03:24.906Z,1014.02
2018-04-06T12:04:24.909Z,1014.02
2018-04-06T12:05:26.523Z,1013.97